sensor_id;sensor_type;location;lat;lon;timestamp;P1;durP1;ratioP1;P2;durP2;ratioP2
2570;SDS011;1295;51.130;6.732;2024-02-15T00:00:55;7.47;;;6.83;;
2570;SDS011;1295;51.130;6.732;2024-02-15T00:03:21;6.17;;;5.53;;
2570;SDS011;1295;51.130;6.732;2024-02-15T00:06:02;7.93;;;6.60;;
2570;SDS011;1295;51.130;6.732;2024-02-15T00:08:29;7.47;;;5.50;;
2570;SDS011;1295;51.130;6.732;2024-02-15T00:10:54;14.27;;;7.63;;
2570;SDS011;1295;51.130;6.732;2024-02-15T00:16:07;11.97;;;6.60;;
2570;SDS011;1295;51.130;6.732;2024-02-15T00:18:32;7.43;;;6.73;;
2570;SDS011;1295;51.130;6.732;2024-02-15T00:20:58;8.70;;;5.93;;
2570;SDS011;1295;51.130;6.732;2024-02-15T00:23:24;9.90;;;6.40;;
2570;SDS011;1295;51.130;6.732;2024-02-15T00:25:49;9.00;;;5.77;;
2570;SDS011;1295;51.130;6.732;2024-02-15T00:28:15;5.47;;;4.50;;
2570;SDS011;1295;51.130;6.732;2024-02-15T00:30:40;8.97;;;6.10;;
2570;SDS011;1295;51.130;6.732;2024-02-15T00:33:06;15.50;;;7.23;;
2570;SDS011;1295;51.130;6.732;2024-02-15T00:35:32;18.83;;;7.80;;
2570;SDS011;1295;51.130;6.732;2024-02-15T00:37:57;12.73;;;7.10;;
2570;SDS011;1295;51.130;6.732;2024-02-15T00:40:23;8.80;;;7.53;;
2570;SDS011;1295;51.130;6.732;2024-02-15T00:42:49;8.17;;;6.90;;
2570;SDS011;1295;51.130;6.732;2024-02-15T00:45:14;10.23;;;6.53;;
2570;SDS011;1295;51.130;6.732;2024-02-15T00:47:40;10.43;;;6.90;;
2570;SDS011;1295;51.130;6.732;2024-02-15T00:50:06;6.63;;;6.00;;
2570;SDS011;1295;51.130;6.732;2024-02-15T00:52:32;14.80;;;6.90;;
2570;SDS011;1295;51.130;6.732;2024-02-15T00:54:58;12.40;;;8.93;;
2570;SDS011;1295;51.130;6.732;2024-02-15T00:57:23;10.33;;;5.97;;
2570;SDS011;1295;51.130;6.732;2024-02-15T00:59:49;11.00;;;6.20;;
2570;SDS011;1295;51.130;6.732;2024-02-15T01:02:15;5.97;;;5.57;;
2570;SDS011;1295;51.130;6.732;2024-02-15T01:04:40;9.23;;;6.13;;
2570;SDS011;1295;51.130;6.732;2024-02-15T01:07:06;15.33;;;5.93;;
2570;SDS011;1295;51.130;6.732;2024-02-15T01:09:32;8.03;;;6.47;;
2570;SDS011;1295;51.130;6.732;2024-02-15T01:11:57;6.77;;;6.20;;
2570;SDS011;1295;51.130;6.732;2024-02-15T01:14:23;7.83;;;7.00;;
2570;SDS011;1295;51.130;6.732;2024-02-15T01:16:48;8.30;;;6.93;;
2570;SDS011;1295;51.130;6.732;2024-02-15T01:19:14;10.33;;;6.20;;
2570;SDS011;1295;51.130;6.732;2024-02-15T01:21:41;9.63;;;4.57;;
2570;SDS011;1295;51.130;6.732;2024-02-15T01:24:06;6.23;;;5.73;;
2570;SDS011;1295;51.130;6.732;2024-02-15T01:26:32;9.10;;;7.10;;
2570;SDS011;1295;51.130;6.732;2024-02-15T01:28:58;9.73;;;7.20;;
2570;SDS011;1295;51.130;6.732;2024-02-15T01:31:24;7.63;;;7.00;;
2570;SDS011;1295;51.130;6.732;2024-02-15T01:33:49;6.73;;;6.13;;
2570;SDS011;1295;51.130;6.732;2024-02-15T01:36:15;7.03;;;5.77;;
2570;SDS011;1295;51.130;6.732;2024-02-15T01:38:41;6.43;;;5.77;;
2570;SDS011;1295;51.130;6.732;2024-02-15T01:41:06;5.80;;;4.83;;
2570;SDS011;1295;51.130;6.732;2024-02-15T01:43:32;9.07;;;5.20;;
2570;SDS011;1295;51.130;6.732;2024-02-15T01:45:58;9.10;;;6.07;;
2570;SDS011;1295;51.130;6.732;2024-02-15T01:48:23;9.73;;;6.37;;
2570;SDS011;1295;51.130;6.732;2024-02-15T01:50:49;8.83;;;5.67;;
2570;SDS011;1295;51.130;6.732;2024-02-15T01:53:14;11.73;;;5.90;;
2570;SDS011;1295;51.130;6.732;2024-02-15T01:55:40;7.80;;;5.57;;
2570;SDS011;1295;51.130;6.732;2024-02-15T01:58:06;8.77;;;5.20;;
2570;SDS011;1295;51.130;6.732;2024-02-15T02:00:31;5.27;;;4.97;;
2570;SDS011;1295;51.130;6.732;2024-02-15T02:02:58;7.33;;;5.67;;
2570;SDS011;1295;51.130;6.732;2024-02-15T02:05:23;8.57;;;4.60;;
2570;SDS011;1295;51.130;6.732;2024-02-15T02:07:49;5.23;;;4.83;;
2570;SDS011;1295;51.130;6.732;2024-02-15T02:10:15;5.60;;;5.30;;
2570;SDS011;1295;51.130;6.732;2024-02-15T02:12:40;6.30;;;5.60;;
2570;SDS011;1295;51.130;6.732;2024-02-15T02:15:06;8.30;;;5.17;;
2570;SDS011;1295;51.130;6.732;2024-02-15T02:17:33;8.27;;;5.77;;
2570;SDS011;1295;51.130;6.732;2024-02-15T02:19:58;7.57;;;5.50;;
2570;SDS011;1295;51.130;6.732;2024-02-15T02:22:24;10.07;;;5.60;;
2570;SDS011;1295;51.130;6.732;2024-02-15T02:27:32;5.03;;;4.23;;
2570;SDS011;1295;51.130;6.732;2024-02-15T02:29:58;5.90;;;5.30;;
2570;SDS011;1295;51.130;6.732;2024-02-15T02:32:23;7.10;;;4.67;;
2570;SDS011;1295;51.130;6.732;2024-02-15T02:34:49;5.50;;;5.00;;
2570;SDS011;1295;51.130;6.732;2024-02-15T02:37:15;9.77;;;4.40;;
2570;SDS011;1295;51.130;6.732;2024-02-15T02:39:41;6.53;;;5.20;;
2570;SDS011;1295;51.130;6.732;2024-02-15T02:42:06;8.53;;;4.80;;
2570;SDS011;1295;51.130;6.732;2024-02-15T02:44:31;6.63;;;5.10;;
2570;SDS011;1295;51.130;6.732;2024-02-15T02:46:57;10.50;;;6.07;;
2570;SDS011;1295;51.130;6.732;2024-02-15T02:49:23;6.97;;;4.30;;
2570;SDS011;1295;51.130;6.732;2024-02-15T02:51:49;11.37;;;4.87;;
2570;SDS011;1295;51.130;6.732;2024-02-15T02:54:15;4.70;;;3.63;;
2570;SDS011;1295;51.130;6.732;2024-02-15T02:56:40;12.30;;;5.03;;
2570;SDS011;1295;51.130;6.732;2024-02-15T02:59:06;9.10;;;4.50;;
2570;SDS011;1295;51.130;6.732;2024-02-15T03:01:32;6.70;;;4.87;;
2570;SDS011;1295;51.130;6.732;2024-02-15T03:03:57;5.50;;;4.07;;
2570;SDS011;1295;51.130;6.732;2024-02-15T03:06:23;6.50;;;4.10;;
2570;SDS011;1295;51.130;6.732;2024-02-15T03:08:50;5.50;;;4.33;;
2570;SDS011;1295;51.130;6.732;2024-02-15T03:11:16;5.37;;;4.43;;
2570;SDS011;1295;51.130;6.732;2024-02-15T03:13:42;4.37;;;4.03;;
2570;SDS011;1295;51.130;6.732;2024-02-15T03:16:07;4.30;;;3.90;;
2570;SDS011;1295;51.130;6.732;2024-02-15T03:18:33;3.97;;;3.63;;
2570;SDS011;1295;51.130;6.732;2024-02-15T03:20:59;4.03;;;3.70;;
2570;SDS011;1295;51.130;6.732;2024-02-15T03:23:24;3.80;;;3.30;;
2570;SDS011;1295;51.130;6.732;2024-02-15T03:25:51;4.20;;;3.30;;
2570;SDS011;1295;51.130;6.732;2024-02-15T03:28:16;5.93;;;3.60;;
2570;SDS011;1295;51.130;6.732;2024-02-15T03:30:42;2.80;;;2.70;;
2570;SDS011;1295;51.130;6.732;2024-02-15T03:33:08;8.53;;;2.93;;
2570;SDS011;1295;51.130;6.732;2024-02-15T03:35:34;2.80;;;2.60;;
2570;SDS011;1295;51.130;6.732;2024-02-15T03:37:59;2.87;;;2.67;;
2570;SDS011;1295;51.130;6.732;2024-02-15T03:40:25;3.07;;;2.87;;
2570;SDS011;1295;51.130;6.732;2024-02-15T03:42:51;2.97;;;2.77;;
2570;SDS011;1295;51.130;6.732;2024-02-15T03:45:17;2.83;;;2.70;;
2570;SDS011;1295;51.130;6.732;2024-02-15T03:47:42;2.90;;;2.40;;
2570;SDS011;1295;51.130;6.732;2024-02-15T03:50:08;3.70;;;2.90;;
2570;SDS011;1295;51.130;6.732;2024-02-15T03:52:35;3.23;;;2.67;;
2570;SDS011;1295;51.130;6.732;2024-02-15T03:55:00;2.47;;;2.37;;
2570;SDS011;1295;51.130;6.732;2024-02-15T03:57:26;4.20;;;2.37;;
2570;SDS011;1295;51.130;6.732;2024-02-15T03:59:52;3.03;;;2.83;;
2570;SDS011;1295;51.130;6.732;2024-02-15T04:02:18;2.47;;;2.37;;
2570;SDS011;1295;51.130;6.732;2024-02-15T04:04:44;3.07;;;2.87;;
2570;SDS011;1295;51.130;6.732;2024-02-15T04:07:09;2.37;;;2.17;;
2570;SDS011;1295;51.130;6.732;2024-02-15T04:09:35;2.07;;;1.97;;
2570;SDS011;1295;51.130;6.732;2024-02-15T04:12:01;3.40;;;3.20;;
2570;SDS011;1295;51.130;6.732;2024-02-15T04:14:26;4.60;;;3.40;;
2570;SDS011;1295;51.130;6.732;2024-02-15T04:16:52;4.07;;;3.80;;
2570;SDS011;1295;51.130;6.732;2024-02-15T04:19:24;3.30;;;3.20;;
2570;SDS011;1295;51.130;6.732;2024-02-15T04:21:50;3.50;;;3.30;;
2570;SDS011;1295;51.130;6.732;2024-02-15T04:24:16;3.33;;;3.13;;
2570;SDS011;1295;51.130;6.732;2024-02-15T04:26:41;7.87;;;4.53;;
2570;SDS011;1295;51.130;6.732;2024-02-15T04:29:07;3.27;;;3.00;;
2570;SDS011;1295;51.130;6.732;2024-02-15T04:31:33;3.53;;;3.23;;
2570;SDS011;1295;51.130;6.732;2024-02-15T04:33:58;3.97;;;3.77;;
2570;SDS011;1295;51.130;6.732;2024-02-15T04:36:24;3.20;;;3.00;;
2570;SDS011;1295;51.130;6.732;2024-02-15T04:38:50;5.23;;;3.00;;
2570;SDS011;1295;51.130;6.732;2024-02-15T04:41:15;3.70;;;3.50;;
2570;SDS011;1295;51.130;6.732;2024-02-15T04:43:41;5.27;;;3.80;;
2570;SDS011;1295;51.130;6.732;2024-02-15T04:46:06;3.30;;;3.10;;
2570;SDS011;1295;51.130;6.732;2024-02-15T04:48:33;4.83;;;3.20;;
2570;SDS011;1295;51.130;6.732;2024-02-15T04:51:09;3.30;;;3.20;;
2570;SDS011;1295;51.130;6.732;2024-02-15T04:53:34;4.43;;;4.07;;
2570;SDS011;1295;51.130;6.732;2024-02-15T04:56:00;4.50;;;4.17;;
2570;SDS011;1295;51.130;6.732;2024-02-15T04:58:26;4.10;;;3.90;;
2570;SDS011;1295;51.130;6.732;2024-02-15T05:00:52;3.93;;;3.73;;
2570;SDS011;1295;51.130;6.732;2024-02-15T05:03:27;3.33;;;3.10;;
2570;SDS011;1295;51.130;6.732;2024-02-15T05:05:53;5.17;;;4.23;;
2570;SDS011;1295;51.130;6.732;2024-02-15T05:08:19;3.23;;;2.93;;
2570;SDS011;1295;51.130;6.732;2024-02-15T05:10:44;4.07;;;3.10;;
2570;SDS011;1295;51.130;6.732;2024-02-15T05:13:10;5.73;;;3.90;;
2570;SDS011;1295;51.130;6.732;2024-02-15T05:15:35;3.07;;;2.97;;
2570;SDS011;1295;51.130;6.732;2024-02-15T05:18:01;4.57;;;4.20;;
2570;SDS011;1295;51.130;6.732;2024-02-15T05:20:27;3.80;;;3.60;;
2570;SDS011;1295;51.130;6.732;2024-02-15T05:22:53;2.60;;;2.40;;
2570;SDS011;1295;51.130;6.732;2024-02-15T05:25:19;2.90;;;2.70;;
2570;SDS011;1295;51.130;6.732;2024-02-15T05:27:48;3.63;;;3.37;;
2570;SDS011;1295;51.130;6.732;2024-02-15T05:30:13;2.67;;;2.57;;
2570;SDS011;1295;51.130;6.732;2024-02-15T05:32:46;6.30;;;3.67;;
2570;SDS011;1295;51.130;6.732;2024-02-15T05:35:12;4.03;;;3.63;;
2570;SDS011;1295;51.130;6.732;2024-02-15T05:37:38;4.20;;;2.97;;
2570;SDS011;1295;51.130;6.732;2024-02-15T05:40:04;3.60;;;3.30;;
2570;SDS011;1295;51.130;6.732;2024-02-15T05:42:31;4.20;;;3.90;;
2570;SDS011;1295;51.130;6.732;2024-02-15T05:44:59;3.70;;;3.50;;
2570;SDS011;1295;51.130;6.732;2024-02-15T05:47:23;2.63;;;2.43;;
2570;SDS011;1295;51.130;6.732;2024-02-15T05:49:48;6.70;;;3.40;;
2570;SDS011;1295;51.130;6.732;2024-02-15T05:52:14;4.00;;;3.70;;
2570;SDS011;1295;51.130;6.732;2024-02-15T05:54:47;4.40;;;4.20;;
2570;SDS011;1295;51.130;6.732;2024-02-15T05:57:13;2.60;;;2.50;;
2570;SDS011;1295;51.130;6.732;2024-02-15T05:59:39;3.57;;;3.23;;
2570;SDS011;1295;51.130;6.732;2024-02-15T06:02:05;5.07;;;3.30;;
2570;SDS011;1295;51.130;6.732;2024-02-15T06:04:30;3.13;;;3.03;;
2570;SDS011;1295;51.130;6.732;2024-02-15T06:06:56;4.20;;;3.30;;
2570;SDS011;1295;51.130;6.732;2024-02-15T06:09:22;3.20;;;3.10;;
2570;SDS011;1295;51.130;6.732;2024-02-15T06:11:47;4.20;;;3.90;;
2570;SDS011;1295;51.130;6.732;2024-02-15T06:14:13;3.40;;;3.30;;
2570;SDS011;1295;51.130;6.732;2024-02-15T06:16:43;5.63;;;4.33;;
2570;SDS011;1295;51.130;6.732;2024-02-15T06:19:09;4.47;;;4.07;;
2570;SDS011;1295;51.130;6.732;2024-02-15T06:21:34;4.37;;;4.00;;
2570;SDS011;1295;51.130;6.732;2024-02-15T06:24:00;4.20;;;3.80;;
2570;SDS011;1295;51.130;6.732;2024-02-15T06:26:26;3.83;;;3.63;;
2570;SDS011;1295;51.130;6.732;2024-02-15T06:28:52;3.87;;;3.03;;
2570;SDS011;1295;51.130;6.732;2024-02-15T06:31:34;3.10;;;2.87;;
2570;SDS011;1295;51.130;6.732;2024-02-15T06:34:05;4.83;;;4.10;;
2570;SDS011;1295;51.130;6.732;2024-02-15T06:36:39;3.53;;;3.23;;
2570;SDS011;1295;51.130;6.732;2024-02-15T06:39:11;3.70;;;3.40;;
2570;SDS011;1295;51.130;6.732;2024-02-15T06:41:43;4.37;;;3.97;;
2570;SDS011;1295;51.130;6.732;2024-02-15T06:44:09;6.77;;;4.00;;
2570;SDS011;1295;51.130;6.732;2024-02-15T06:46:34;3.77;;;3.47;;
2570;SDS011;1295;51.130;6.732;2024-02-15T06:49:00;5.40;;;4.83;;
2570;SDS011;1295;51.130;6.732;2024-02-15T06:51:26;3.50;;;3.20;;
2570;SDS011;1295;51.130;6.732;2024-02-15T06:53:51;3.87;;;3.00;;
2570;SDS011;1295;51.130;6.732;2024-02-15T06:56:17;3.50;;;2.50;;
2570;SDS011;1295;51.130;6.732;2024-02-15T06:58:43;5.90;;;5.10;;
2570;SDS011;1295;51.130;6.732;2024-02-15T07:01:09;5.40;;;3.30;;
2570;SDS011;1295;51.130;6.732;2024-02-15T07:03:34;4.77;;;4.47;;
2570;SDS011;1295;51.130;6.732;2024-02-15T07:06:00;3.90;;;3.70;;
2570;SDS011;1295;51.130;6.732;2024-02-15T07:08:26;3.37;;;3.17;;
2570;SDS011;1295;51.130;6.732;2024-02-15T07:10:51;4.53;;;4.23;;
2570;SDS011;1295;51.130;6.732;2024-02-15T07:13:18;6.03;;;4.90;;
2570;SDS011;1295;51.130;6.732;2024-02-15T07:15:44;5.17;;;4.87;;
2570;SDS011;1295;51.130;6.732;2024-02-15T07:18:09;4.60;;;4.40;;
2570;SDS011;1295;51.130;6.732;2024-02-15T07:20:35;4.80;;;4.50;;
2570;SDS011;1295;51.130;6.732;2024-02-15T07:23:00;5.20;;;4.80;;
2570;SDS011;1295;51.130;6.732;2024-02-15T07:25:26;3.80;;;3.60;;
2570;SDS011;1295;51.130;6.732;2024-02-15T07:27:52;6.57;;;4.17;;
2570;SDS011;1295;51.130;6.732;2024-02-15T07:30:18;10.57;;;4.77;;
2570;SDS011;1295;51.130;6.732;2024-02-15T07:32:44;3.20;;;3.00;;
2570;SDS011;1295;51.130;6.732;2024-02-15T07:35:09;4.30;;;3.60;;
2570;SDS011;1295;51.130;6.732;2024-02-15T07:37:35;3.73;;;3.43;;
2570;SDS011;1295;51.130;6.732;2024-02-15T07:40:01;7.10;;;4.63;;
2570;SDS011;1295;51.130;6.732;2024-02-15T07:42:26;7.33;;;3.83;;
2570;SDS011;1295;51.130;6.732;2024-02-15T07:44:52;4.50;;;4.13;;
2570;SDS011;1295;51.130;6.732;2024-02-15T07:47:28;6.23;;;4.23;;
2570;SDS011;1295;51.130;6.732;2024-02-15T07:49:53;7.27;;;5.00;;
2570;SDS011;1295;51.130;6.732;2024-02-15T07:52:19;4.17;;;3.73;;
2570;SDS011;1295;51.130;6.732;2024-02-15T07:54:45;3.50;;;2.73;;
2570;SDS011;1295;51.130;6.732;2024-02-15T07:57:11;15.47;;;6.17;;
2570;SDS011;1295;51.130;6.732;2024-02-15T07:59:36;7.20;;;4.40;;
2570;SDS011;1295;51.130;6.732;2024-02-15T08:02:02;3.40;;;3.10;;
2570;SDS011;1295;51.130;6.732;2024-02-15T08:04:28;4.37;;;4.07;;
2570;SDS011;1295;51.130;6.732;2024-02-15T08:06:53;4.40;;;3.70;;
2570;SDS011;1295;51.130;6.732;2024-02-15T08:09:19;3.83;;;3.50;;
2570;SDS011;1295;51.130;6.732;2024-02-15T08:11:45;7.60;;;4.37;;
2570;SDS011;1295;51.130;6.732;2024-02-15T08:14:11;6.77;;;4.70;;
2570;SDS011;1295;51.130;6.732;2024-02-15T08:16:37;5.70;;;3.70;;
2570;SDS011;1295;51.130;6.732;2024-02-15T08:19:02;4.73;;;3.60;;
2570;SDS011;1295;51.130;6.732;2024-02-15T08:21:29;6.10;;;4.17;;
2570;SDS011;1295;51.130;6.732;2024-02-15T08:23:53;5.70;;;4.97;;
2570;SDS011;1295;51.130;6.732;2024-02-15T08:26:19;5.73;;;5.17;;
2570;SDS011;1295;51.130;6.732;2024-02-15T08:28:45;12.60;;;5.70;;
2570;SDS011;1295;51.130;6.732;2024-02-15T08:31:10;6.50;;;3.80;;
2570;SDS011;1295;51.130;6.732;2024-02-15T08:33:36;6.90;;;3.90;;
2570;SDS011;1295;51.130;6.732;2024-02-15T08:36:02;8.20;;;4.77;;
2570;SDS011;1295;51.130;6.732;2024-02-15T08:38:27;7.23;;;4.97;;
2570;SDS011;1295;51.130;6.732;2024-02-15T08:40:53;6.07;;;4.87;;
2570;SDS011;1295;51.130;6.732;2024-02-15T08:43:19;7.20;;;4.00;;
2570;SDS011;1295;51.130;6.732;2024-02-15T08:45:44;4.30;;;4.00;;
2570;SDS011;1295;51.130;6.732;2024-02-15T08:48:10;6.50;;;4.67;;
2570;SDS011;1295;51.130;6.732;2024-02-15T08:50:35;6.53;;;3.70;;
2570;SDS011;1295;51.130;6.732;2024-02-15T08:53:01;4.83;;;4.53;;
2570;SDS011;1295;51.130;6.732;2024-02-15T08:55:28;5.23;;;4.83;;
2570;SDS011;1295;51.130;6.732;2024-02-15T08:57:53;7.10;;;4.50;;
2570;SDS011;1295;51.130;6.732;2024-02-15T09:00:19;7.50;;;4.80;;
2570;SDS011;1295;51.130;6.732;2024-02-15T09:02:45;4.50;;;4.17;;
2570;SDS011;1295;51.130;6.732;2024-02-15T09:05:10;4.73;;;4.20;;
2570;SDS011;1295;51.130;6.732;2024-02-15T09:07:43;5.23;;;4.27;;
2570;SDS011;1295;51.130;6.732;2024-02-15T09:10:09;7.60;;;5.23;;
2570;SDS011;1295;51.130;6.732;2024-02-15T09:12:37;12.30;;;4.30;;
2570;SDS011;1295;51.130;6.732;2024-02-15T09:15:03;4.67;;;4.00;;
2570;SDS011;1295;51.130;6.732;2024-02-15T09:17:29;4.67;;;4.23;;
2570;SDS011;1295;51.130;6.732;2024-02-15T09:19:55;8.23;;;4.07;;
2570;SDS011;1295;51.130;6.732;2024-02-15T09:22:20;7.60;;;4.80;;
2570;SDS011;1295;51.130;6.732;2024-02-15T09:24:46;6.80;;;4.90;;
2570;SDS011;1295;51.130;6.732;2024-02-15T09:27:12;7.90;;;4.63;;
2570;SDS011;1295;51.130;6.732;2024-02-15T09:29:38;6.30;;;4.37;;
2570;SDS011;1295;51.130;6.732;2024-02-15T09:32:03;4.47;;;3.97;;
2570;SDS011;1295;51.130;6.732;2024-02-15T09:34:29;7.00;;;4.90;;
2570;SDS011;1295;51.130;6.732;2024-02-15T09:36:54;3.30;;;2.90;;
2570;SDS011;1295;51.130;6.732;2024-02-15T09:39:20;4.40;;;3.97;;
2570;SDS011;1295;51.130;6.732;2024-02-15T09:41:45;5.77;;;4.50;;
2570;SDS011;1295;51.130;6.732;2024-02-15T09:44:11;10.70;;;4.00;;
2570;SDS011;1295;51.130;6.732;2024-02-15T09:46:40;3.63;;;3.53;;
2570;SDS011;1295;51.130;6.732;2024-02-15T09:49:03;3.37;;;3.13;;
2570;SDS011;1295;51.130;6.732;2024-02-15T09:51:29;4.47;;;4.07;;
2570;SDS011;1295;51.130;6.732;2024-02-15T09:53:54;5.03;;;4.63;;
2570;SDS011;1295;51.130;6.732;2024-02-15T09:56:19;4.00;;;3.13;;
2570;SDS011;1295;51.130;6.732;2024-02-15T09:58:45;4.80;;;4.03;;
2570;SDS011;1295;51.130;6.732;2024-02-15T10:01:11;7.60;;;7.00;;
2570;SDS011;1295;51.130;6.732;2024-02-15T10:03:37;5.50;;;5.10;;
2570;SDS011;1295;51.130;6.732;2024-02-15T10:06:02;8.83;;;4.50;;
2570;SDS011;1295;51.130;6.732;2024-02-15T10:08:29;6.70;;;4.23;;
2570;SDS011;1295;51.130;6.732;2024-02-15T10:13:32;4.73;;;4.33;;
2570;SDS011;1295;51.130;6.732;2024-02-15T10:15:57;12.63;;;4.30;;
2570;SDS011;1295;51.130;6.732;2024-02-15T10:18:23;9.07;;;5.17;;
2570;SDS011;1295;51.130;6.732;2024-02-15T10:21:04;6.23;;;4.63;;
2570;SDS011;1295;51.130;6.732;2024-02-15T10:23:30;5.90;;;3.87;;
2570;SDS011;1295;51.130;6.732;2024-02-15T10:25:55;5.60;;;5.17;;
2570;SDS011;1295;51.130;6.732;2024-02-15T10:28:21;9.93;;;3.50;;
2570;SDS011;1295;51.130;6.732;2024-02-15T10:30:47;8.80;;;4.50;;
2570;SDS011;1295;51.130;6.732;2024-02-15T10:33:18;3.77;;;3.47;;
2570;SDS011;1295;51.130;6.732;2024-02-15T10:35:43;5.33;;;2.87;;
2570;SDS011;1295;51.130;6.732;2024-02-15T10:38:09;4.30;;;4.00;;
2570;SDS011;1295;51.130;6.732;2024-02-15T10:40:35;3.93;;;3.43;;
2570;SDS011;1295;51.130;6.732;2024-02-15T10:43:03;10.30;;;3.97;;
2570;SDS011;1295;51.130;6.732;2024-02-15T10:45:28;4.83;;;4.50;;
2570;SDS011;1295;51.130;6.732;2024-02-15T10:47:53;4.37;;;4.07;;
2570;SDS011;1295;51.130;6.732;2024-02-15T10:50:19;4.00;;;3.70;;
2570;SDS011;1295;51.130;6.732;2024-02-15T10:53:00;3.47;;;3.27;;
2570;SDS011;1295;51.130;6.732;2024-02-15T10:58:20;2.43;;;2.23;;
2570;SDS011;1295;51.130;6.732;2024-02-15T11:00:45;6.67;;;3.07;;
2570;SDS011;1295;51.130;6.732;2024-02-15T11:03:11;3.27;;;3.07;;
2570;SDS011;1295;51.130;6.732;2024-02-15T11:05:37;9.93;;;3.53;;
2570;SDS011;1295;51.130;6.732;2024-02-15T11:08:04;11.03;;;4.93;;
2570;SDS011;1295;51.130;6.732;2024-02-15T11:10:30;3.10;;;2.80;;
2570;SDS011;1295;51.130;6.732;2024-02-15T11:12:56;3.93;;;2.50;;
2570;SDS011;1295;51.130;6.732;2024-02-15T11:18:00;3.23;;;2.93;;
2570;SDS011;1295;51.130;6.732;2024-02-15T11:20:45;5.67;;;2.43;;
2570;SDS011;1295;51.130;6.732;2024-02-15T11:23:12;4.10;;;2.70;;
2570;SDS011;1295;51.130;6.732;2024-02-15T11:25:38;7.13;;;2.67;;
2570;SDS011;1295;51.130;6.732;2024-02-15T11:30:43;3.00;;;2.77;;
2570;SDS011;1295;51.130;6.732;2024-02-15T11:36:02;5.70;;;2.50;;
2570;SDS011;1295;51.130;6.732;2024-02-15T11:38:31;3.37;;;3.03;;
2570;SDS011;1295;51.130;6.732;2024-02-15T11:41:00;7.10;;;4.00;;
2570;SDS011;1295;51.130;6.732;2024-02-15T11:46:12;5.33;;;2.40;;
2570;SDS011;1295;51.130;6.732;2024-02-15T11:48:37;3.83;;;3.20;;
2570;SDS011;1295;51.130;6.732;2024-02-15T11:51:05;4.27;;;2.37;;
2570;SDS011;1295;51.130;6.732;2024-02-15T11:53:31;2.57;;;2.37;;
2570;SDS011;1295;51.130;6.732;2024-02-15T11:55:59;2.60;;;2.50;;
2570;SDS011;1295;51.130;6.732;2024-02-15T11:58:23;3.27;;;2.47;;
2570;SDS011;1295;51.130;6.732;2024-02-15T12:00:48;3.50;;;2.40;;
2570;SDS011;1295;51.130;6.732;2024-02-15T12:03:20;2.57;;;2.37;;
2570;SDS011;1295;51.130;6.732;2024-02-15T12:05:52;3.83;;;2.13;;
2570;SDS011;1295;51.130;6.732;2024-02-15T12:08:24;2.60;;;2.50;;
2570;SDS011;1295;51.130;6.732;2024-02-15T12:10:58;4.17;;;2.80;;
2570;SDS011;1295;51.130;6.732;2024-02-15T12:13:30;4.63;;;2.37;;
2570;SDS011;1295;51.130;6.732;2024-02-15T12:16:02;7.00;;;2.30;;
2570;SDS011;1295;51.130;6.732;2024-02-15T12:18:34;2.50;;;2.33;;
2570;SDS011;1295;51.130;6.732;2024-02-15T12:21:05;2.10;;;1.83;;
2570;SDS011;1295;51.130;6.732;2024-02-15T12:23:31;3.03;;;2.73;;
2570;SDS011;1295;51.130;6.732;2024-02-15T12:25:57;5.00;;;2.60;;
2570;SDS011;1295;51.130;6.732;2024-02-15T12:28:22;3.43;;;2.47;;
2570;SDS011;1295;51.130;6.732;2024-02-15T12:30:48;3.23;;;2.43;;
2570;SDS011;1295;51.130;6.732;2024-02-15T12:33:14;3.63;;;2.50;;
2570;SDS011;1295;51.130;6.732;2024-02-15T12:35:39;2.67;;;2.47;;
2570;SDS011;1295;51.130;6.732;2024-02-15T12:38:05;3.83;;;2.43;;
2570;SDS011;1295;51.130;6.732;2024-02-15T12:40:32;4.57;;;2.70;;
2570;SDS011;1295;51.130;6.732;2024-02-15T12:42:57;2.00;;;1.90;;
2570;SDS011;1295;51.130;6.732;2024-02-15T12:45:25;6.70;;;2.93;;
2570;SDS011;1295;51.130;6.732;2024-02-15T12:47:55;2.67;;;2.40;;
2570;SDS011;1295;51.130;6.732;2024-02-15T12:50:21;3.53;;;3.07;;
2570;SDS011;1295;51.130;6.732;2024-02-15T12:52:47;3.53;;;3.03;;
2570;SDS011;1295;51.130;6.732;2024-02-15T12:55:14;3.73;;;3.03;;
2570;SDS011;1295;51.130;6.732;2024-02-15T12:57:41;2.30;;;2.20;;
2570;SDS011;1295;51.130;6.732;2024-02-15T13:00:07;2.83;;;2.63;;
2570;SDS011;1295;51.130;6.732;2024-02-15T13:02:33;4.80;;;3.00;;
2570;SDS011;1295;51.130;6.732;2024-02-15T13:04:58;2.23;;;2.07;;
2570;SDS011;1295;51.130;6.732;2024-02-15T13:07:24;3.20;;;3.00;;
2570;SDS011;1295;51.130;6.732;2024-02-15T13:09:50;3.40;;;3.20;;
2570;SDS011;1295;51.130;6.732;2024-02-15T13:12:15;4.03;;;3.63;;
2570;SDS011;1295;51.130;6.732;2024-02-15T13:14:41;3.30;;;2.67;;
2570;SDS011;1295;51.130;6.732;2024-02-15T13:17:06;2.40;;;2.20;;
2570;SDS011;1295;51.130;6.732;2024-02-15T13:19:32;2.03;;;1.80;;
2570;SDS011;1295;51.130;6.732;2024-02-15T13:21:58;2.80;;;2.60;;
2570;SDS011;1295;51.130;6.732;2024-02-15T13:24:24;3.80;;;2.67;;
2570;SDS011;1295;51.130;6.732;2024-02-15T13:27:00;2.43;;;2.33;;
2570;SDS011;1295;51.130;6.732;2024-02-15T13:29:27;3.60;;;2.40;;
2570;SDS011;1295;51.130;6.732;2024-02-15T13:31:52;7.53;;;3.53;;
2570;SDS011;1295;51.130;6.732;2024-02-15T13:34:18;2.67;;;2.47;;
2570;SDS011;1295;51.130;6.732;2024-02-15T13:36:44;6.23;;;3.17;;
2570;SDS011;1295;51.130;6.732;2024-02-15T13:39:09;2.90;;;2.60;;
2570;SDS011;1295;51.130;6.732;2024-02-15T13:41:36;2.50;;;2.30;;
2570;SDS011;1295;51.130;6.732;2024-02-15T13:44:01;6.27;;;2.40;;
2570;SDS011;1295;51.130;6.732;2024-02-15T13:46:27;2.20;;;2.10;;
2570;SDS011;1295;51.130;6.732;2024-02-15T13:48:52;3.87;;;2.80;;
2570;SDS011;1295;51.130;6.732;2024-02-15T13:51:18;3.27;;;2.73;;
2570;SDS011;1295;51.130;6.732;2024-02-15T13:53:44;3.20;;;2.90;;
2570;SDS011;1295;51.130;6.732;2024-02-15T13:56:10;4.17;;;3.10;;
2570;SDS011;1295;51.130;6.732;2024-02-15T13:58:36;2.43;;;2.23;;
2570;SDS011;1295;51.130;6.732;2024-02-15T14:01:01;3.83;;;2.63;;
2570;SDS011;1295;51.130;6.732;2024-02-15T14:03:27;3.10;;;2.67;;
2570;SDS011;1295;51.130;6.732;2024-02-15T14:05:54;2.43;;;2.33;;
2570;SDS011;1295;51.130;6.732;2024-02-15T14:08:30;4.03;;;3.07;;
2570;SDS011;1295;51.130;6.732;2024-02-15T14:10:56;2.40;;;2.30;;
2570;SDS011;1295;51.130;6.732;2024-02-15T14:13:21;2.67;;;2.57;;
2570;SDS011;1295;51.130;6.732;2024-02-15T14:15:47;3.13;;;2.50;;
2570;SDS011;1295;51.130;6.732;2024-02-15T14:18:13;2.97;;;2.77;;
2570;SDS011;1295;51.130;6.732;2024-02-15T14:20:40;2.13;;;2.03;;
2570;SDS011;1295;51.130;6.732;2024-02-15T14:23:05;3.50;;;3.20;;
2570;SDS011;1295;51.130;6.732;2024-02-15T14:25:31;2.87;;;2.47;;
2570;SDS011;1295;51.130;6.732;2024-02-15T14:27:56;2.70;;;2.50;;
2570;SDS011;1295;51.130;6.732;2024-02-15T14:30:22;2.70;;;2.60;;
2570;SDS011;1295;51.130;6.732;2024-02-15T14:32:53;3.10;;;2.60;;
2570;SDS011;1295;51.130;6.732;2024-02-15T14:35:25;3.00;;;2.87;;
2570;SDS011;1295;51.130;6.732;2024-02-15T14:37:52;5.80;;;2.80;;
2570;SDS011;1295;51.130;6.732;2024-02-15T14:40:18;3.70;;;3.40;;
2570;SDS011;1295;51.130;6.732;2024-02-15T14:42:44;2.60;;;2.50;;
2570;SDS011;1295;51.130;6.732;2024-02-15T14:45:10;2.43;;;2.27;;
2570;SDS011;1295;51.130;6.732;2024-02-15T14:47:36;3.10;;;2.80;;
2570;SDS011;1295;51.130;6.732;2024-02-15T14:50:02;1.83;;;1.73;;
2570;SDS011;1295;51.130;6.732;2024-02-15T14:52:28;3.07;;;2.77;;
2570;SDS011;1295;51.130;6.732;2024-02-15T14:54:54;2.60;;;2.43;;
2570;SDS011;1295;51.130;6.732;2024-02-15T14:57:30;4.03;;;2.20;;
2570;SDS011;1295;51.130;6.732;2024-02-15T14:59:55;2.43;;;2.23;;
2570;SDS011;1295;51.130;6.732;2024-02-15T15:02:21;4.20;;;2.97;;
2570;SDS011;1295;51.130;6.732;2024-02-15T15:04:47;2.83;;;2.70;;
2570;SDS011;1295;51.130;6.732;2024-02-15T15:07:12;2.23;;;2.13;;
2570;SDS011;1295;51.130;6.732;2024-02-15T15:09:44;6.30;;;2.57;;
2570;SDS011;1295;51.130;6.732;2024-02-15T15:12:15;2.30;;;2.20;;
2570;SDS011;1295;51.130;6.732;2024-02-15T15:14:47;3.37;;;2.30;;
2570;SDS011;1295;51.130;6.732;2024-02-15T15:17:13;2.93;;;2.67;;
2570;SDS011;1295;51.130;6.732;2024-02-15T15:19:38;2.93;;;2.73;;
2570;SDS011;1295;51.130;6.732;2024-02-15T15:22:04;3.80;;;2.50;;
2570;SDS011;1295;51.130;6.732;2024-02-15T15:24:31;2.50;;;2.30;;
2570;SDS011;1295;51.130;6.732;2024-02-15T15:26:56;2.17;;;1.97;;
2570;SDS011;1295;51.130;6.732;2024-02-15T15:29:22;3.33;;;3.10;;
2570;SDS011;1295;51.130;6.732;2024-02-15T15:31:48;2.87;;;2.67;;